sensor_id;sensor_type;location;lat;lon;timestamp;pressure;altitude;pressure_sealevel;temperature;humidity
55610;BME280;41486;52.502;13.486;2023-05-10T00:01:41;100708.78;;;12.71;60.26
55610;BME280;41486;52.502;13.486;2023-05-10T00:04:09;100707.94;;;12.70;60.40
55610;BME280;41486;52.502;13.486;2023-05-10T00:06:37;100707.72;;;12.52;61.71
55610;BME280;41486;52.502;13.486;2023-05-10T00:09:07;100704.75;;;12.67;60.75
55610;BME280;41486;52.502;13.486;2023-05-10T00:11:35;100702.16;;;12.55;61.23
55610;BME280;41486;52.502;13.486;2023-05-10T00:14:03;100699.63;;;12.33;62.45
55610;BME280;41486;52.502;13.486;2023-05-10T00:16:34;100700.78;;;12.40;61.98
55610;BME280;41486;52.502;13.486;2023-05-10T00:19:02;100704.97;;;12.42;62.10
55610;BME280;41486;52.502;13.486;2023-05-10T00:21:30;100692.34;;;12.46;61.60
55610;BME280;41486;52.502;13.486;2023-05-10T00:23:58;100697.00;;;12.33;62.08
55610;BME280;41486;52.502;13.486;2023-05-10T00:26:28;100695.22;;;12.33;61.63
55610;BME280;41486;52.502;13.486;2023-05-10T00:28:56;100691.47;;;12.36;61.90
55610;BME280;41486;52.502;13.486;2023-05-10T00:31:25;100688.69;;;12.16;62.85
55610;BME280;41486;52.502;13.486;2023-05-10T00:33:53;100681.13;;;12.11;63.27
55610;BME280;41486;52.502;13.486;2023-05-10T00:36:21;100684.91;;;12.30;62.46
55610;BME280;41486;52.502;13.486;2023-05-10T00:38:49;100682.75;;;12.03;63.49
55610;BME280;41486;52.502;13.486;2023-05-10T00:41:17;100670.31;;;11.82;64.71
55610;BME280;41486;52.502;13.486;2023-05-10T00:43:48;100671.09;;;11.94;64.43
55610;BME280;41486;52.502;13.486;2023-05-10T00:46:16;100668.00;;;11.89;64.26
55610;BME280;41486;52.502;13.486;2023-05-10T00:48:44;100666.47;;;11.97;64.42
55610;BME280;41486;52.502;13.486;2023-05-10T00:51:13;100669.72;;;11.78;65.10
55610;BME280;41486;52.502;13.486;2023-05-10T00:53:41;100662.00;;;11.54;66.39
55610;BME280;41486;52.502;13.486;2023-05-10T00:56:10;100659.38;;;11.43;67.54
55610;BME280;41486;52.502;13.486;2023-05-10T00:58:38;100656.16;;;11.39;67.74
55610;BME280;41486;52.502;13.486;2023-05-10T01:01:08;100657.50;;;11.22;69.09
55610;BME280;41486;52.502;13.486;2023-05-10T01:03:37;100648.25;;;11.39;68.31
55610;BME280;41486;52.502;13.486;2023-05-10T01:06:05;100650.91;;;11.28;69.15
55610;BME280;41486;52.502;13.486;2023-05-10T01:08:33;100653.41;;;11.18;69.97
55610;BME280;41486;52.502;13.486;2023-05-10T01:11:01;100652.97;;;11.24;69.64
55610;BME280;41486;52.502;13.486;2023-05-10T01:13:32;100641.59;;;11.12;70.77
55610;BME280;41486;52.502;13.486;2023-05-10T01:16:00;100644.47;;;11.09;70.66
55610;BME280;41486;52.502;13.486;2023-05-10T01:18:33;100642.06;;;11.17;70.37
55610;BME280;41486;52.502;13.486;2023-05-10T01:21:09;100632.84;;;11.23;69.96
55610;BME280;41486;52.502;13.486;2023-05-10T01:23:58;100634.03;;;10.96;71.84
55610;BME280;41486;52.502;13.486;2023-05-10T01:30:08;100629.34;;;10.66;74.71
55610;BME280;41486;52.502;13.486;2023-05-10T01:32:46;100629.63;;;10.63;74.75
55610;BME280;41486;52.502;13.486;2023-05-10T01:35:21;100630.22;;;10.78;74.02
55610;BME280;41486;52.502;13.486;2023-05-10T01:37:59;100624.94;;;10.78;74.45
55610;BME280;41486;52.502;13.486;2023-05-10T01:40:35;100620.28;;;10.70;74.52
55610;BME280;41486;52.502;13.486;2023-05-10T01:43:19;100625.69;;;10.68;74.92
55610;BME280;41486;52.502;13.486;2023-05-10T01:46:07;100625.19;;;10.63;75.21
55610;BME280;41486;52.502;13.486;2023-05-10T01:48:43;100626.97;;;10.63;75.02
55610;BME280;41486;52.502;13.486;2023-05-10T01:51:18;100627.34;;;10.58;75.39
55610;BME280;41486;52.502;13.486;2023-05-10T01:53:47;100618.13;;;10.52;75.83
55610;BME280;41486;52.502;13.486;2023-05-10T01:56:16;100615.63;;;10.73;74.49
55610;BME280;41486;52.502;13.486;2023-05-10T01:58:48;100622.81;;;10.60;75.14
55610;BME280;41486;52.502;13.486;2023-05-10T02:01:18;100617.88;;;10.67;75.01
55610;BME280;41486;52.502;13.486;2023-05-10T02:03:50;100621.38;;;10.67;74.82
55610;BME280;41486;52.502;13.486;2023-05-10T02:06:19;100616.94;;;10.56;76.03
55610;BME280;41486;52.502;13.486;2023-05-10T02:08:49;100614.53;;;10.53;75.59
55610;BME280;41486;52.502;13.486;2023-05-10T02:11:19;100621.72;;;10.63;75.27
55610;BME280;41486;52.502;13.486;2023-05-10T02:13:50;100619.31;;;10.48;76.32
55610;BME280;41486;52.502;13.486;2023-05-10T02:16:26;100618.84;;;10.66;75.31
55610;BME280;41486;52.502;13.486;2023-05-10T02:18:59;100624.69;;;10.47;76.11
55610;BME280;41486;52.502;13.486;2023-05-10T02:21:29;100617.28;;;10.63;75.21
55610;BME280;41486;52.502;13.486;2023-05-10T02:24:01;100606.16;;;10.48;76.59
55610;BME280;41486;52.502;13.486;2023-05-10T02:26:31;100609.50;;;10.39;76.95
55610;BME280;41486;52.502;13.486;2023-05-10T02:29:01;100611.53;;;10.47;76.40
55610;BME280;41486;52.502;13.486;2023-05-10T02:31:31;100603.56;;;10.24;78.09
55610;BME280;41486;52.502;13.486;2023-05-10T02:34:02;100608.53;;;10.40;77.29
55610;BME280;41486;52.502;13.486;2023-05-10T02:36:32;100603.88;;;10.44;76.95
55610;BME280;41486;52.502;13.486;2023-05-10T02:39:01;100612.56;;;10.33;77.12
55610;BME280;41486;52.502;13.486;2023-05-10T02:41:30;100607.47;;;10.43;76.87
55610;BME280;41486;52.502;13.486;2023-05-10T02:44:01;100605.38;;;10.35;77.10
55610;BME280;41486;52.502;13.486;2023-05-10T02:46:30;100601.06;;;10.22;77.60
55610;BME280;41486;52.502;13.486;2023-05-10T02:48:58;100600.94;;;10.24;77.54
55610;BME280;41486;52.502;13.486;2023-05-10T02:51:30;100605.91;;;10.04;79.07
55610;BME280;41486;52.502;13.486;2023-05-10T02:54:07;100600.22;;;9.86;80.01
55610;BME280;41486;52.502;13.486;2023-05-10T02:56:40;100606.19;;;10.13;78.91
55610;BME280;41486;52.502;13.486;2023-05-10T02:59:10;100606.41;;;10.09;78.64
55610;BME280;41486;52.502;13.486;2023-05-10T03:01:38;100604.97;;;9.81;80.58
55610;BME280;41486;52.502;13.486;2023-05-10T03:04:06;100599.38;;;9.86;80.78
55610;BME280;41486;52.502;13.486;2023-05-10T03:06:36;100601.56;;;9.92;80.94
55610;BME280;41486;52.502;13.486;2023-05-10T03:09:04;100599.72;;;10.05;79.60
55610;BME280;41486;52.502;13.486;2023-05-10T03:11:45;100601.13;;;10.09;78.36
55610;BME280;41486;52.502;13.486;2023-05-10T03:14:24;100601.22;;;9.97;79.00
55610;BME280;41486;52.502;13.486;2023-05-10T03:17:00;100606.59;;;9.95;79.50
55610;BME280;41486;52.502;13.486;2023-05-10T03:19:36;100594.25;;;9.84;79.91
55610;BME280;41486;52.502;13.486;2023-05-10T03:22:10;100595.59;;;9.66;81.75
55610;BME280;41486;52.502;13.486;2023-05-10T03:24:39;100596.63;;;9.87;80.21
55610;BME280;41486;52.502;13.486;2023-05-10T03:27:09;100594.66;;;10.02;79.02
55610;BME280;41486;52.502;13.486;2023-05-10T03:29:39;100598.19;;;9.90;79.37
55610;BME280;41486;52.502;13.486;2023-05-10T03:32:07;100597.03;;;9.94;79.15
55610;BME280;41486;52.502;13.486;2023-05-10T03:34:41;100596.94;;;9.71;80.23
55610;BME280;41486;52.502;13.486;2023-05-10T03:37:11;100599.06;;;9.66;81.57
55610;BME280;41486;52.502;13.486;2023-05-10T03:39:40;100597.03;;;9.70;80.92
55610;BME280;41486;52.502;13.486;2023-05-10T03:42:09;100599.56;;;9.71;81.04
55610;BME280;41486;52.502;13.486;2023-05-10T03:44:38;100588.59;;;9.77;80.21
55610;BME280;41486;52.502;13.486;2023-05-10T03:47:08;100592.53;;;9.72;80.59
55610;BME280;41486;52.502;13.486;2023-05-10T03:49:36;100579.50;;;9.70;80.45
55610;BME280;41486;52.502;13.486;2023-05-10T03:52:04;100594.66;;;9.67;81.31
55610;BME280;41486;52.502;13.486;2023-05-10T03:54:35;100586.13;;;9.87;79.69
55610;BME280;41486;52.502;13.486;2023-05-10T03:57:04;100588.66;;;9.89;79.64
55610;BME280;41486;52.502;13.486;2023-05-10T03:59:32;100587.94;;;9.87;79.34
55610;BME280;41486;52.502;13.486;2023-05-10T04:02:00;100591.44;;;9.74;80.46
55610;BME280;41486;52.502;13.486;2023-05-10T04:04:29;100591.78;;;9.94;78.88
55610;BME280;41486;52.502;13.486;2023-05-10T04:06:57;100593.66;;;9.92;79.33
55610;BME280;41486;52.502;13.486;2023-05-10T04:09:25;100594.63;;;9.91;79.46
55610;BME280;41486;52.502;13.486;2023-05-10T04:11:55;100591.19;;;10.02;78.29
55610;BME280;41486;52.502;13.486;2023-05-10T04:14:22;100593.94;;;10.00;78.67
55610;BME280;41486;52.502;13.486;2023-05-10T04:16:51;100579.22;;;9.98;78.88
55610;BME280;41486;52.502;13.486;2023-05-10T04:19:19;100587.34;;;9.94;78.55
55610;BME280;41486;52.502;13.486;2023-05-10T04:21:47;100582.94;;;10.06;77.79
55610;BME280;41486;52.502;13.486;2023-05-10T04:24:15;100584.81;;;10.17;76.57
55610;BME280;41486;52.502;13.486;2023-05-10T04:26:43;100583.47;;;10.23;76.70
55610;BME280;41486;52.502;13.486;2023-05-10T04:29:12;100576.09;;;10.28;75.53
55610;BME280;41486;52.502;13.486;2023-05-10T04:31:40;100588.97;;;10.31;75.47
55610;BME280;41486;52.502;13.486;2023-05-10T04:34:08;100585.81;;;10.39;74.89
55610;BME280;41486;52.502;13.486;2023-05-10T04:36:36;100579.69;;;10.38;74.95
55610;BME280;41486;52.502;13.486;2023-05-10T04:39:04;100583.31;;;10.49;73.89
55610;BME280;41486;52.502;13.486;2023-05-10T04:41:32;100581.78;;;10.57;73.77
55610;BME280;41486;52.502;13.486;2023-05-10T04:44:00;100575.66;;;10.57;73.98
55610;BME280;41486;52.502;13.486;2023-05-10T04:46:29;100580.69;;;10.49;74.62
55610;BME280;41486;52.502;13.486;2023-05-10T04:48:57;100581.41;;;10.73;73.97
55610;BME280;41486;52.502;13.486;2023-05-10T04:51:25;100578.28;;;10.80;72.86
55610;BME280;41486;52.502;13.486;2023-05-10T04:53:53;100579.84;;;10.82;72.46
55610;BME280;41486;52.502;13.486;2023-05-10T04:56:32;100573.25;;;10.88;72.03
55610;BME280;41486;52.502;13.486;2023-05-10T04:59:00;100572.06;;;10.92;72.41
55610;BME280;41486;52.502;13.486;2023-05-10T05:01:29;100572.53;;;10.97;71.92
55610;BME280;41486;52.502;13.486;2023-05-10T05:03:58;100570.25;;;11.04;72.00
55610;BME280;41486;52.502;13.486;2023-05-10T05:06:26;100576.72;;;11.11;70.89
55610;BME280;41486;52.502;13.486;2023-05-10T05:08:54;100571.31;;;11.24;70.74
55610;BME280;41486;52.502;13.486;2023-05-10T05:11:22;100577.38;;;11.25;71.06
55610;BME280;41486;52.502;13.486;2023-05-10T05:13:50;100578.66;;;11.42;70.09
55610;BME280;41486;52.502;13.486;2023-05-10T05:16:18;100570.38;;;11.46;70.14
55610;BME280;41486;52.502;13.486;2023-05-10T05:18:49;100578.75;;;11.51;69.82
55610;BME280;41486;52.502;13.486;2023-05-10T05:21:18;100568.66;;;11.57;70.12
55610;BME280;41486;52.502;13.486;2023-05-10T05:23:47;100569.22;;;11.72;69.61
55610;BME280;41486;52.502;13.486;2023-05-10T05:26:14;100570.38;;;11.79;70.16
55610;BME280;41486;52.502;13.486;2023-05-10T05:28:42;100566.41;;;11.84;67.93
55610;BME280;41486;52.502;13.486;2023-05-10T05:31:10;100568.38;;;12.04;67.94
55610;BME280;41486;52.502;13.486;2023-05-10T05:33:38;100575.31;;;12.05;68.10
55610;BME280;41486;52.502;13.486;2023-05-10T05:36:09;100572.31;;;12.09;67.13
55610;BME280;41486;52.502;13.486;2023-05-10T05:38:37;100570.81;;;12.17;67.18
55610;BME280;41486;52.502;13.486;2023-05-10T05:41:05;100562.94;;;12.26;67.00
55610;BME280;41486;52.502;13.486;2023-05-10T05:43:33;100571.06;;;12.35;66.62
55610;BME280;41486;52.502;13.486;2023-05-10T05:46:04;100567.16;;;12.39;66.47
55610;BME280;41486;52.502;13.486;2023-05-10T05:48:32;100568.22;;;12.48;65.59
55610;BME280;41486;52.502;13.486;2023-05-10T05:51:00;100558.66;;;12.56;65.75
55610;BME280;41486;52.502;13.486;2023-05-10T05:53:31;100557.28;;;12.62;64.93
55610;BME280;41486;52.502;13.486;2023-05-10T05:55:59;100561.53;;;12.84;64.19
55610;BME280;41486;52.502;13.486;2023-05-10T05:58:26;100554.38;;;13.06;63.44
55610;BME280;41486;52.502;13.486;2023-05-10T06:00:55;100553.66;;;13.04;63.37
55610;BME280;41486;52.502;13.486;2023-05-10T06:03:23;100553.09;;;13.10;62.88
55610;BME280;41486;52.502;13.486;2023-05-10T06:05:52;100559.56;;;13.27;62.26
55610;BME280;41486;52.502;13.486;2023-05-10T06:08:20;100555.81;;;13.39;62.16
55610;BME280;41486;52.502;13.486;2023-05-10T06:10:49;100557.38;;;13.52;61.50
55610;BME280;41486;52.502;13.486;2023-05-10T06:13:17;100557.78;;;13.57;61.68
55610;BME280;41486;52.502;13.486;2023-05-10T06:15:45;100556.41;;;13.63;60.31
55610;BME280;41486;52.502;13.486;2023-05-10T06:18:13;100565.19;;;13.73;60.46
55610;BME280;41486;52.502;13.486;2023-05-10T06:20:41;100562.94;;;13.88;59.85
55610;BME280;41486;52.502;13.486;2023-05-10T06:23:09;100562.94;;;13.98;59.50
55610;BME280;41486;52.502;13.486;2023-05-10T06:25:37;100562.47;;;14.02;58.61
55610;BME280;41486;52.502;13.486;2023-05-10T06:28:07;100558.00;;;14.13;57.79
55610;BME280;41486;52.502;13.486;2023-05-10T06:30:36;100557.16;;;14.22;58.12
55610;BME280;41486;52.502;13.486;2023-05-10T06:33:04;100562.31;;;14.24;57.70
55610;BME280;41486;52.502;13.486;2023-05-10T06:35:32;100567.59;;;14.33;57.30
55610;BME280;41486;52.502;13.486;2023-05-10T06:38:00;100557.25;;;14.40;56.96
55610;BME280;41486;52.502;13.486;2023-05-10T06:40:28;100564.59;;;14.46;57.08
55610;BME280;41486;52.502;13.486;2023-05-10T06:42:56;100568.63;;;14.50;56.77
55610;BME280;41486;52.502;13.486;2023-05-10T06:45:25;100564.72;;;14.55;57.40
55610;BME280;41486;52.502;13.486;2023-05-10T06:47:53;100560.78;;;14.69;56.77
55610;BME280;41486;52.502;13.486;2023-05-10T06:50:21;100561.91;;;14.66;56.30
55610;BME280;41486;52.502;13.486;2023-05-10T06:52:49;100559.22;;;14.76;56.53
55610;BME280;41486;52.502;13.486;2023-05-10T06:55:19;100561.88;;;14.76;56.68
55610;BME280;41486;52.502;13.486;2023-05-10T06:57:47;100556.28;;;14.79;56.50
55610;BME280;41486;52.502;13.486;2023-05-10T07:00:16;100553.03;;;14.85;56.02
55610;BME280;41486;52.502;13.486;2023-05-10T07:02:47;100567.53;;;14.91;55.63
55610;BME280;41486;52.502;13.486;2023-05-10T07:05:15;100564.72;;;14.92;55.89
55610;BME280;41486;52.502;13.486;2023-05-10T07:07:43;100559.28;;;14.94;55.89
55610;BME280;41486;52.502;13.486;2023-05-10T07:10:11;100559.22;;;15.04;56.04
55610;BME280;41486;52.502;13.486;2023-05-10T07:12:39;100555.16;;;15.09;55.67
55610;BME280;41486;52.502;13.486;2023-05-10T07:15:08;100546.75;;;15.14;56.05
55610;BME280;41486;52.502;13.486;2023-05-10T07:17:36;100543.63;;;15.19;55.50
55610;BME280;41486;52.502;13.486;2023-05-10T07:20:08;100544.31;;;15.21;55.42
55610;BME280;41486;52.502;13.486;2023-05-10T07:22:36;100550.69;;;15.28;55.31
55610;BME280;41486;52.502;13.486;2023-05-10T07:25:05;100543.50;;;15.20;55.24
55610;BME280;41486;52.502;13.486;2023-05-10T07:27:33;100551.38;;;15.30;55.19
55610;BME280;41486;52.502;13.486;2023-05-10T07:30:01;100543.88;;;15.43;55.56
55610;BME280;41486;52.502;13.486;2023-05-10T07:32:30;100548.72;;;15.48;55.03
55610;BME280;41486;52.502;13.486;2023-05-10T07:34:58;100547.13;;;15.55;54.98
55610;BME280;41486;52.502;13.486;2023-05-10T07:37:28;100553.97;;;15.58;54.05
55610;BME280;41486;52.502;13.486;2023-05-10T07:39:56;100556.13;;;15.62;54.87
55610;BME280;41486;52.502;13.486;2023-05-10T07:42:24;100555.69;;;15.67;55.06
55610;BME280;41486;52.502;13.486;2023-05-10T07:44:52;100554.47;;;15.80;55.08
55610;BME280;41486;52.502;13.486;2023-05-10T07:47:20;100555.97;;;15.82;54.49
55610;BME280;41486;52.502;13.486;2023-05-10T07:49:48;100540.97;;;15.91;53.79
55610;BME280;41486;52.502;13.486;2023-05-10T07:52:16;100551.50;;;16.01;53.88
55610;BME280;41486;52.502;13.486;2023-05-10T07:54:49;100549.00;;;15.99;54.31
55610;BME280;41486;52.502;13.486;2023-05-10T07:57:17;100548.59;;;16.12;53.99
55610;BME280;41486;52.502;13.486;2023-05-10T07:59:45;100541.66;;;16.19;53.75
55610;BME280;41486;52.502;13.486;2023-05-10T08:02:14;100541.66;;;16.19;53.09
55610;BME280;41486;52.502;13.486;2023-05-10T08:04:42;100544.41;;;16.36;52.77
55610;BME280;41486;52.502;13.486;2023-05-10T08:07:10;100550.06;;;16.33;52.22
55610;BME280;41486;52.502;13.486;2023-05-10T08:09:38;100542.28;;;16.39;52.96
55610;BME280;41486;52.502;13.486;2023-05-10T08:12:07;100545.47;;;16.51;52.74
55610;BME280;41486;52.502;13.486;2023-05-10T08:14:35;100544.91;;;16.66;52.23
55610;BME280;41486;52.502;13.486;2023-05-10T08:17:06;100551.34;;;16.63;51.81
55610;BME280;41486;52.502;13.486;2023-05-10T08:19:34;100544.56;;;16.69;51.97
55610;BME280;41486;52.502;13.486;2023-05-10T08:22:02;100541.44;;;16.74;52.42
55610;BME280;41486;52.502;13.486;2023-05-10T08:24:32;100540.28;;;16.76;51.28
55610;BME280;41486;52.502;13.486;2023-05-10T08:27:01;100544.28;;;16.80;51.00
55610;BME280;41486;52.502;13.486;2023-05-10T08:29:31;100539.28;;;16.77;51.01
55610;BME280;41486;52.502;13.486;2023-05-10T08:32:04;100535.50;;;16.88;50.93
55610;BME280;41486;52.502;13.486;2023-05-10T08:34:32;100544.72;;;17.02;50.38
55610;BME280;41486;52.502;13.486;2023-05-10T08:37:00;100533.94;;;17.12;50.71
55610;BME280;41486;52.502;13.486;2023-05-10T08:39:28;100534.59;;;17.14;50.81
55610;BME280;41486;52.502;13.486;2023-05-10T08:42:01;100535.78;;;17.19;50.19
55610;BME280;41486;52.502;13.486;2023-05-10T08:44:32;100546.94;;;17.31;49.91
55610;BME280;41486;52.502;13.486;2023-05-10T08:47:02;100542.63;;;17.30;49.33
55610;BME280;41486;52.502;13.486;2023-05-10T08:49:32;100540.78;;;17.39;49.92
55610;BME280;41486;52.502;13.486;2023-05-10T08:52:02;100549.28;;;17.43;48.91
55610;BME280;41486;52.502;13.486;2023-05-10T08:54:32;100551.78;;;17.53;48.61
55610;BME280;41486;52.502;13.486;2023-05-10T08:57:00;100544.81;;;17.60;48.38
55610;BME280;41486;52.502;13.486;2023-05-10T08:59:30;100545.31;;;17.72;47.98
55610;BME280;41486;52.502;13.486;2023-05-10T09:01:59;100551.63;;;17.71;48.27
55610;BME280;41486;52.502;13.486;2023-05-10T09:04:27;100537.50;;;17.78;49.01
55610;BME280;41486;52.502;13.486;2023-05-10T09:06:57;100541.66;;;17.97;48.00
55610;BME280;41486;52.502;13.486;2023-05-10T09:09:25;100557.28;;;18.01;47.48
55610;BME280;41486;52.502;13.486;2023-05-10T09:11:54;100549.78;;;18.04;47.22
55610;BME280;41486;52.502;13.486;2023-05-10T09:14:23;100544.63;;;18.11;47.27
55610;BME280;41486;52.502;13.486;2023-05-10T09:16:54;100549.09;;;18.19;46.99
55610;BME280;41486;52.502;13.486;2023-05-10T09:19:22;100548.06;;;18.28;46.98
55610;BME280;41486;52.502;13.486;2023-05-10T09:21:50;100551.56;;;18.37;46.23
55610;BME280;41486;52.502;13.486;2023-05-10T09:24:18;100549.53;;;18.39;46.46
55610;BME280;41486;52.502;13.486;2023-05-10T09:26:47;100550.38;;;18.48;46.60
55610;BME280;41486;52.502;13.486;2023-05-10T09:29:16;100551.53;;;18.53;46.02
55610;BME280;41486;52.502;13.486;2023-05-10T09:31:46;100554.97;;;18.62;46.32
55610;BME280;41486;52.502;13.486;2023-05-10T09:34:20;100560.13;;;18.64;45.52
55610;BME280;41486;52.502;13.486;2023-05-10T09:36:52;100558.97;;;18.66;45.87
55610;BME280;41486;52.502;13.486;2023-05-10T09:39:29;100558.03;;;18.90;46.23
55610;BME280;41486;52.502;13.486;2023-05-10T09:41:58;100558.44;;;19.11;44.72
55610;BME280;41486;52.502;13.486;2023-05-10T09:44:27;100564.25;;;19.14;45.19
55610;BME280;41486;52.502;13.486;2023-05-10T09:46:55;100566.22;;;19.20;44.61
55610;BME280;41486;52.502;13.486;2023-05-10T09:49:25;100567.22;;;19.19;44.95
55610;BME280;41486;52.502;13.486;2023-05-10T09:52:03;100560.59;;;19.15;44.61
55610;BME280;41486;52.502;13.486;2023-05-10T09:54:32;100569.88;;;19.19;44.14
55610;BME280;41486;52.502;13.486;2023-05-10T09:57:00;100564.16;;;19.31;44.02
55610;BME280;41486;52.502;13.486;2023-05-10T09:59:29;100558.72;;;19.47;43.38
55610;BME280;41486;52.502;13.486;2023-05-10T10:01:59;100564.66;;;19.58;43.73
55610;BME280;41486;52.502;13.486;2023-05-10T10:04:29;100568.13;;;19.81;42.59
55610;BME280;41486;52.502;13.486;2023-05-10T10:06:59;100561.25;;;19.87;42.39
55610;BME280;41486;52.502;13.486;2023-05-10T10:09:29;100568.00;;;19.75;42.28
55610;BME280;41486;52.502;13.486;2023-05-10T10:11:58;100558.81;;;20.15;42.72
55610;BME280;41486;52.502;13.486;2023-05-10T10:14:27;100554.38;;;20.68;41.72
55610;BME280;41486;52.502;13.486;2023-05-10T10:16:55;100568.88;;;20.88;41.57
55610;BME280;41486;52.502;13.486;2023-05-10T10:19:35;100563.53;;;21.25;40.45
55610;BME280;41486;52.502;13.486;2023-05-10T10:22:04;100555.25;;;21.41;40.41
55610;BME280;41486;52.502;13.486;2023-05-10T10:24:32;100551.69;;;21.56;40.02
55610;BME280;41486;52.502;13.486;2023-05-10T10:27:07;100562.09;;;21.94;39.37
55610;BME280;41486;52.502;13.486;2023-05-10T10:29:40;100551.31;;;22.09;38.58
55610;BME280;41486;52.502;13.486;2023-05-10T10:32:22;100548.13;;;22.27;38.11
55610;BME280;41486;52.502;13.486;2023-05-10T10:34:54;100550.34;;;22.52;38.03
55610;BME280;41486;52.502;13.486;2023-05-10T10:37:22;100545.88;;;22.31;37.71
55610;BME280;41486;52.502;13.486;2023-05-10T10:39:50;100543.78;;;22.61;37.50
55610;BME280;41486;52.502;13.486;2023-05-10T10:42:45;100547.03;;;23.12;36.45
55610;BME280;41486;52.502;13.486;2023-05-10T10:45:13;100544.75;;;23.02;36.12
55610;BME280;41486;52.502;13.486;2023-05-10T10:47:42;100540.41;;;22.94;36.65
55610;BME280;41486;52.502;13.486;2023-05-10T10:50:11;100555.28;;;23.04;36.33
55610;BME280;41486;52.502;13.486;2023-05-10T10:52:40;100556.50;;;23.01;37.09
55610;BME280;41486;52.502;13.486;2023-05-10T10:55:10;100556.13;;;23.04;37.07
55610;BME280;41486;52.502;13.486;2023-05-10T10:57:46;100563.22;;;23.25;36.51
55610;BME280;41486;52.502;13.486;2023-05-10T11:00:20;100549.03;;;23.58;35.18
55610;BME280;41486;52.502;13.486;2023-05-10T11:02:51;100547.31;;;22.68;36.19
55610;BME280;41486;52.502;13.486;2023-05-10T11:05:44;100543.25;;;23.75;34.82
55610;BME280;41486;52.502;13.486;2023-05-10T11:08:18;100550.84;;;24.91;33.40
55610;BME280;41486;52.502;13.486;2023-05-10T11:11:01;100547.75;;;25.83;32.31
55610;BME280;41486;52.502;13.486;2023-05-10T11:13:31;100553.75;;;26.66;30.68
55610;BME280;41486;52.502;13.486;2023-05-10T11:16:10;100550.13;;;26.91;31.06
55610;BME280;41486;52.502;13.486;2023-05-10T11:18:39;100544.00;;;27.80;29.95
55610;BME280;41486;52.502;13.486;2023-05-10T11:21:09;100542.94;;;28.41;28.96
55610;BME280;41486;52.502;13.486;2023-05-10T11:23:49;100540.00;;;28.83;27.59
55610;BME280;41486;52.502;13.486;2023-05-10T11:26:18;100548.78;;;28.61;28.16
55610;BME280;41486;52.502;13.486;2023-05-10T11:28:49;100555.59;;;29.68;27.02
55610;BME280;41486;52.502;13.486;2023-05-10T11:31:19;100559.75;;;29.75;26.08
55610;BME280;41486;52.502;13.486;2023-05-10T11:33:48;100546.53;;;29.79;26.08
55610;BME280;41486;52.502;13.486;2023-05-10T11:36:20;100551.09;;;28.17;27.50
55610;BME280;41486;52.502;13.486;2023-05-10T11:38:48;100549.25;;;29.79;26.52
55610;BME280;41486;52.502;13.486;2023-05-10T11:41:18;100541.16;;;30.41;25.93
55610;BME280;41486;52.502;13.486;2023-05-10T11:43:50;100536.03;;;29.66;26.43
55610;BME280;41486;52.502;13.486;2023-05-10T11:46:19;100535.41;;;30.37;26.05
55610;BME280;41486;52.502;13.486;2023-05-10T11:48:50;100543.91;;;29.84;26.72
55610;BME280;41486;52.502;13.486;2023-05-10T11:51:21;100543.75;;;31.29;24.71
55610;BME280;41486;52.502;13.486;2023-05-10T11:53:50;100546.06;;;31.75;23.31
55610;BME280;41486;52.502;13.486;2023-05-10T11:56:19;100544.91;;;29.61;25.48
55610;BME280;41486;52.502;13.486;2023-05-10T11:58:53;100542.22;;;30.84;24.81
55610;BME280;41486;52.502;13.486;2023-05-10T12:01:22;100553.56;;;30.53;25.31
55610;BME280;41486;52.502;13.486;2023-05-10T12:03:51;100555.94;;;30.72;24.68
55610;BME280;41486;52.502;13.486;2023-05-10T12:06:25;100545.75;;;30.84;24.44
55610;BME280;41486;52.502;13.486;2023-05-10T12:08:54;100554.91;;;31.98;22.49
55610;BME280;41486;52.502;13.486;2023-05-10T12:11:24;100553.41;;;30.88;24.19
55610;BME280;41486;52.502;13.486;2023-05-10T12:13:53;100557.75;;;30.89;23.98
55610;BME280;41486;52.502;13.486;2023-05-10T12:16:22;100560.34;;;29.61;25.18
55610;BME280;41486;52.502;13.486;2023-05-10T12:18:51;100546.22;;;30.76;23.29
55610;BME280;41486;52.502;13.486;2023-05-10T12:21:25;100554.91;;;30.12;24.37
55610;BME280;41486;52.502;13.486;2023-05-10T12:23:54;100551.78;;;30.03;24.63
55610;BME280;41486;52.502;13.486;2023-05-10T12:26:23;100554.59;;;27.70;27.29
55610;BME280;41486;52.502;13.486;2023-05-10T12:28:53;100556.53;;;27.39;27.42
55610;BME280;41486;52.502;13.486;2023-05-10T12:31:21;100550.59;;;27.61;27.26
55610;BME280;41486;52.502;13.486;2023-05-10T12:33:49;100555.63;;;27.45;27.99
55610;BME280;41486;52.502;13.486;2023-05-10T12:36:25;100544.44;;;26.81;29.34
55610;BME280;41486;52.502;13.486;2023-05-10T12:39:02;100545.22;;;26.51;29.61
55610;BME280;41486;52.502;13.486;2023-05-10T12:41:31;100556.09;;;27.12;27.88
55610;BME280;41486;52.502;13.486;2023-05-10T12:44:02;100562.00;;;27.51;27.73
55610;BME280;41486;52.502;13.486;2023-05-10T12:46:30;100560.09;;;27.51;28.08
55610;BME280;41486;52.502;13.486;2023-05-10T12:48:58;100557.91;;;27.72;26.40
55610;BME280;41486;52.502;13.486;2023-05-10T12:51:36;100562.31;;;27.43;26.56
55610;BME280;41486;52.502;13.486;2023-05-10T12:54:04;100557.28;;;28.41;25.73
55610;BME280;41486;52.502;13.486;2023-05-10T12:56:32;100565.59;;;29.50;25.13
55610;BME280;41486;52.502;13.486;2023-05-10T12:59:00;100560.25;;;31.18;23.69